Sunny Hills, Florida
Current Conditions -  °F | °C
As of 11:58 PM on Thursday 27 Nov 2014 (Local Time) from K1J0 Reporting Station
NA  
Wind Chill: 34°   Ceiling: NA
Heat Index: 38°   Visibility: 10mi
Dew Point: 32°   Wind: 5mph
Humidity: 79%   Direction: 320°NW
Pressure: 30.43"   Gusts: NA
Location:  30.604°N, 85.5678°W
Report Text: K1J0 280558Z AUTO 32004KT 10SM 03/00 A3043 RMK AO2 SLP288 T00330000 10094 20033 $
Loading
Personal Weather Stations






























Interactive Weather Map New forecast layout! Learn more

10-Day Weather Forecast

Advertisements
Track Severe Weather on mobile